Time;durP1;ratioP1;P1;durP2;ratioP2;P2;SDS_P1;SDS_P2;PMS_P1;PMS_P2;Temp;Humidity;BMP_temperature;BMP_pressure;BME280_temperature;BME280_humidity;BME280_pressure;Samples;Min_cycle;Max_cycle;Signal;HPM_P1;HPM_P2
2022/08/30 00:03:17;;;;;;;0.10;0.10;;;12.40;99.90;;;;;;4894578;29;20212;-88
2022/08/30 00:05:44;;;;;;;0.20;0.20;;;12.40;99.90;;;;;;4894405;29;20478;-88
2022/08/30 00:08:10;;;;;;;0.10;0.10;;;12.40;99.90;;;;;;4887121;29;20453;-88
2022/08/30 00:10:37;;;;;;;0.10;0.10;;;12.40;99.90;;;;;;4894461;29;20857;-88
2022/08/30 00:13:02;;;;;;;0.10;0.10;;;12.40;99.90;;;;;;4891350;29;20492;-88
2022/08/30 00:15:28;;;;;;;0.10;0.10;;;12.40;99.90;;;;;;4887042;29;20934;-88
2022/08/30 00:17:54;;;;;;;0.10;0.10;;;12.30;99.90;;;;;;4885454;29;20457;-88
2022/08/30 00:20:24;;;;;;;0.20;0.20;;;12.30;99.90;;;;;;4893073;29;20453;-88
2022/08/30 00:22:50;;;;;;;0.10;0.10;;;12.40;99.90;;;;;;4889073;29;20181;-88
2022/08/30 00:25:17;;;;;;;0.10;0.10;;;12.30;99.90;;;;;;4882790;29;20731;-88
2022/08/30 00:27:44;;;;;;;0.10;0.10;;;12.30;99.90;;;;;;4904299;29;20193;-87
2022/08/30 00:30:11;;;;;;;0.10;0.10;;;12.30;99.90;;;;;;4892308;29;20545;-87
2022/08/30 00:32:36;;;;;;;0.20;0.20;;;12.20;99.90;;;;;;4898199;29;20442;-88
2022/08/30 00:35:04;;;;;;;0.20;0.20;;;12.20;99.90;;;;;;4891287;29;20456;-88
2022/08/30 00:37:29;;;;;;;0.20;0.20;;;12.20;99.90;;;;;;4891831;29;20193;-88
2022/08/30 00:39:55;;;;;;;0.10;0.10;;;12.20;99.90;;;;;;4908520;29;20505;-88
2022/08/30 00:42:21;;;;;;;0.20;0.20;;;12.20;99.90;;;;;;4892436;29;20218;-87
2022/08/30 00:44:50;;;;;;;0.10;0.10;;;12.20;99.90;;;;;;4891344;29;20189;-88
2022/08/30 00:47:17;;;;;;;0.10;0.10;;;12.40;99.90;;;;;;4887875;29;20459;-88
2022/08/30 00:49:46;;;;;;;0.10;0.10;;;12.50;99.90;;;;;;4892309;29;20457;-88
2022/08/30 00:52:13;;;;;;;0.10;0.10;;;12.60;99.90;;;;;;4891813;29;20461;-88
2022/08/30 00:54:41;;;;;;;0.10;0.10;;;12.70;99.90;;;;;;4887905;29;20496;-88
2022/08/30 00:57:08;;;;;;;0.10;0.10;;;12.70;99.90;;;;;;4887539;29;20529;-87
2022/08/30 00:59:34;;;;;;;0.10;0.10;;;12.70;99.90;;;;;;4892374;29;20541;-88
2022/08/30 01:02:01;;;;;;;0.10;0.10;;;12.70;99.90;;;;;;4891477;29;20457;-88
2022/08/30 01:04:28;;;;;;;0.10;0.10;;;12.70;99.90;;;;;;4877880;29;20230;-88
2022/08/30 01:06:53;;;;;;;0.10;0.10;;;12.80;99.90;;;;;;4889719;29;20455;-88
2022/08/30 01:09:20;;;;;;;0.10;0.10;;;12.80;99.90;;;;;;4888819;29;20469;-87
2022/08/30 01:11:46;;;;;;;0.10;0.10;;;12.70;99.90;;;;;;4890408;29;20193;-87
2022/08/30 01:14:13;;;;;;;0.10;0.10;;;12.60;99.90;;;;;;4891413;29;20499;-88
2022/08/30 01:16:42;;;;;;;0.10;0.10;;;12.70;99.90;;;;;;4888331;29;20486;-88
2022/08/30 01:19:19;;;;;;;0.10;0.10;;;12.70;99.90;;;;;;4882588;29;20462;-88
2022/08/30 01:21:49;;;;;;;0.10;0.10;;;12.80;99.90;;;;;;4892583;29;20460;-88
2022/08/30 01:24:16;;;;;;;0.10;0.10;;;12.80;99.90;;;;;;4892030;29;20504;-88
2022/08/30 01:26:42;;;;;;;0.10;0.10;;;12.70;99.90;;;;;;4890559;29;20477;-88
2022/08/30 01:29:12;;;;;;;0.10;0.10;;;12.70;99.90;;;;;;4892388;29;20453;-87
2022/08/30 01:31:37;;;;;;;0.10;0.10;;;12.70;99.90;;;;;;4891073;29;20196;-88
2022/08/30 01:34:06;;;;;;;0.10;0.10;;;12.70;99.90;;;;;;4893662;29;20665;-88
2022/08/30 01:36:32;;;;;;;0.10;0.10;;;12.70;99.90;;;;;;4895393;29;20185;-88
2022/08/30 01:38:58;;;;;;;0.10;0.10;;;12.70;99.90;;;;;;4894536;29;21005;-87
2022/08/30 01:41:26;;;;;;;0.10;0.10;;;12.70;99.90;;;;;;4892626;29;20447;-87
2022/08/30 01:43:55;;;;;;;0.20;0.20;;;12.70;99.90;;;;;;4891954;29;20185;-88
2022/08/30 01:46:25;;;;;;;0.10;0.10;;;12.60;99.90;;;;;;4892836;29;20460;-88
2022/08/30 01:48:52;;;;;;;0.10;0.10;;;12.70;99.90;;;;;;4894424;29;20472;-87
2022/08/30 01:51:19;;;;;;;0.10;0.10;;;12.70;99.90;;;;;;4893235;29;20449;-88
2022/08/30 01:53:44;;;;;;;0.13;0.13;;;12.70;99.90;;;;;;4907867;29;20499;-88
2022/08/30 01:56:11;;;;;;;0.10;0.10;;;12.70;99.90;;;;;;4893472;29;20449;-88
2022/08/30 01:58:38;;;;;;;0.10;0.10;;;12.60;99.90;;;;;;4891296;29;20268;-88
2022/08/30 02:01:07;;;;;;;0.10;0.10;;;12.50;99.90;;;;;;4889753;29;20508;-88
2022/08/30 02:03:34;;;;;;;0.10;0.10;;;12.60;99.90;;;;;;4893038;29;20477;-87
2022/08/30 02:06:07;;;;;;;0.10;0.10;;;12.60;99.90;;;;;;4894163;29;20460;-88
2022/08/30 02:08:34;;;;;;;0.20;0.20;;;12.60;99.90;;;;;;4896727;29;21081;-87
2022/08/30 02:11:00;;;;;;;0.20;0.20;;;12.60;99.90;;;;;;4895925;29;20933;-88
2022/08/30 02:13:26;;;;;;;0.10;0.10;;;12.60;99.90;;;;;;4894866;29;20488;-88
2022/08/30 02:15:53;;;;;;;0.10;0.10;;;12.60;99.90;;;;;;4894323;29;20491;-88
2022/08/30 02:18:19;;;;;;;0.20;0.20;;;12.60;99.90;;;;;;4892930;29;20348;-88
2022/08/30 02:20:45;;;;;;;0.20;0.20;;;12.50;99.90;;;;;;4893924;29;21031;-88
2022/08/30 02:23:10;;;;;;;0.10;0.10;;;12.50;99.90;;;;;;4890533;29;20574;-88
2022/08/30 02:25:36;;;;;;;0.10;0.10;;;12.50;99.90;;;;;;4888184;29;20244;-87
2022/08/30 02:28:02;;;;;;;0.10;0.10;;;12.50;99.90;;;;;;4894421;29;20584;-88
2022/08/30 02:30:28;;;;;;;0.10;0.10;;;12.40;99.90;;;;;;4890691;29;20204;-88
2022/08/30 02:32:53;;;;;;;0.10;0.10;;;12.40;99.90;;;;;;4894419;29;20477;-87
2022/08/30 02:35:19;;;;;;;0.10;0.10;;;12.50;99.90;;;;;;4891982;29;20201;-87
2022/08/30 02:37:44;;;;;;;0.10;0.10;;;12.40;99.90;;;;;;4892667;29;20663;-88
2022/08/30 02:40:10;;;;;;;0.10;0.10;;;12.50;99.90;;;;;;4907157;29;20291;-87
2022/08/30 02:42:36;;;;;;;0.10;0.10;;;12.50;99.90;;;;;;4893963;29;20268;-87
2022/08/30 02:45:02;;;;;;;0.10;0.10;;;12.40;99.90;;;;;;4893114;29;20589;-87
2022/08/30 02:47:28;;;;;;;0.10;0.10;;;12.50;99.90;;;;;;4892647;29;20631;-87
2022/08/30 02:49:53;;;;;;;0.10;0.10;;;12.40;99.90;;;;;;4895536;29;20547;-87
2022/08/30 02:52:19;;;;;;;0.10;0.10;;;12.50;99.90;;;;;;4909636;29;20189;-88
2022/08/30 02:54:45;;;;;;;0.10;0.10;;;12.60;99.90;;;;;;4893069;29;20221;-88
2022/08/30 02:57:12;;;;;;;0.10;0.10;;;12.60;99.90;;;;;;4891705;29;20216;-86
2022/08/30 02:59:42;;;;;;;0.10;0.10;;;12.70;99.90;;;;;;4889682;29;20504;-87
2022/08/30 03:02:11;;;;;;;0.10;0.10;;;12.80;99.90;;;;;;4883367;29;20441;-87
2022/08/30 03:04:42;;;;;;;0.10;0.10;;;13.00;99.90;;;;;;4891729;29;20456;-88
2022/08/30 03:07:08;;;;;;;0.10;0.10;;;12.80;99.90;;;;;;4893778;29;21049;-88
2022/08/30 03:09:35;;;;;;;0.10;0.10;;;12.70;99.90;;;;;;4894510;29;20469;-87
2022/08/30 03:12:01;;;;;;;0.10;0.10;;;12.60;99.90;;;;;;4892364;29;20259;-88
2022/08/30 03:14:27;;;;;;;0.10;0.10;;;12.50;99.90;;;;;;4895526;29;20584;-88
2022/08/30 03:16:53;;;;;;;0.10;0.10;;;12.60;99.90;;;;;;4893206;29;20572;-88
2022/08/30 03:19:18;;;;;;;0.10;0.10;;;12.50;99.90;;;;;;4893111;29;20257;-87
2022/08/30 03:21:44;;;;;;;0.10;0.10;;;12.50;99.90;;;;;;4888007;29;20454;-87
2022/08/30 03:24:09;;;;;;;0.10;0.10;;;12.50;99.90;;;;;;4893297;29;20193;-87
2022/08/30 03:26:35;;;;;;;0.10;0.10;;;12.50;99.90;;;;;;4906081;29;20181;-88
2022/08/30 03:29:01;;;;;;;0.13;0.13;;;12.40;99.90;;;;;;4894857;29;20197;-88
2022/08/30 03:31:27;;;;;;;0.10;0.10;;;12.50;99.90;;;;;;4889655;29;20193;-88
2022/08/30 03:33:52;;;;;;;0.10;0.10;;;12.50;99.90;;;;;;4894032;29;20580;-89
2022/08/30 03:36:18;;;;;;;0.10;0.10;;;12.50;99.90;;;;;;4894750;29;20209;-87
2022/08/30 03:38:44;;;;;;;0.20;0.20;;;12.50;99.90;;;;;;4889197;29;20200;-87
2022/08/30 03:41:10;;;;;;;0.10;0.10;;;12.40;99.90;;;;;;4887416;29;20469;-88
2022/08/30 03:43:36;;;;;;;0.10;0.10;;;12.40;99.90;;;;;;4883631;29;20208;-88
2022/08/30 03:46:02;;;;;;;0.10;0.10;;;12.30;99.90;;;;;;4892742;29;20650;-88
2022/08/30 03:48:28;;;;;;;0.20;0.20;;;12.30;99.90;;;;;;4892907;29;20200;-87
2022/08/30 03:50:54;;;;;;;0.10;0.10;;;12.30;99.90;;;;;;4891760;29;20941;-87
2022/08/30 03:53:19;;;;;;;0.10;0.10;;;12.30;99.90;;;;;;4889730;29;20485;-87
2022/08/30 03:55:45;;;;;;;0.20;0.20;;;12.30;99.90;;;;;;4892056;29;20237;-88
2022/08/30 03:58:10;;;;;;;0.20;0.20;;;12.40;99.90;;;;;;4885686;29;20207;-86
2022/08/30 04:00:36;;;;;;;0.10;0.10;;;12.30;99.90;;;;;;4890255;29;20201;-89
2022/08/30 04:03:02;;;;;;;0.20;0.20;;;12.40;99.90;;;;;;4892656;29;20196;-88
2022/08/30 04:05:27;;;;;;;0.20;0.20;;;12.40;99.90;;;;;;4893403;29;20212;-88
2022/08/30 04:07:53;;;;;;;0.20;0.20;;;12.30;99.90;;;;;;4895691;29;20193;-87
2022/08/30 04:10:20;;;;;;;0.20;0.20;;;12.30;99.90;;;;;;4889819;29;20278;-88
2022/08/30 04:12:46;;;;;;;0.10;0.10;;;12.20;99.90;;;;;;4885605;29;20719;-89
2022/08/30 04:15:13;;;;;;;0.20;0.20;;;12.10;99.90;;;;;;4891136;29;20503;-87
2022/08/30 04:17:38;;;;;;;0.10;0.10;;;12.20;99.90;;;;;;4894669;29;20461;-87
2022/08/30 04:20:05;;;;;;;0.20;0.20;;;12.10;99.90;;;;;;4891375;29;20544;-87
2022/08/30 04:22:30;;;;;;;0.20;0.20;;;12.10;99.90;;;;;;4888043;29;20197;-87
2022/08/30 04:24:56;;;;;;;0.20;0.20;;;12.10;99.90;;;;;;4888837;29;20821;-87
2022/08/30 04:27:21;;;;;;;0.20;0.20;;;12.10;99.90;;;;;;4892899;29;20229;-87
2022/08/30 04:29:47;;;;;;;0.17;0.17;;;12.00;99.90;;;;;;4888472;29;20197;-87
2022/08/30 04:32:13;;;;;;;0.20;0.20;;;12.00;99.90;;;;;;4893016;29;20271;-87
2022/08/30 04:34:39;;;;;;;0.10;0.10;;;12.00;99.90;;;;;;4879030;29;20236;-87
2022/08/30 04:37:04;;;;;;;0.20;0.20;;;12.00;99.90;;;;;;4905292;29;20449;-88
2022/08/30 04:39:30;;;;;;;0.10;0.10;;;12.00;99.90;;;;;;4891133;29;20197;-88
2022/08/30 04:41:56;;;;;;;0.10;0.10;;;12.10;99.90;;;;;;4894268;29;20226;-87
2022/08/30 04:44:22;;;;;;;0.10;0.10;;;12.10;99.90;;;;;;4892951;29;20573;-88
2022/08/30 04:46:47;;;;;;;0.20;0.20;;;12.10;99.90;;;;;;4894625;29;20181;-88
2022/08/30 04:49:13;;;;;;;0.20;0.20;;;12.10;99.90;;;;;;4894895;29;20502;-88
2022/08/30 04:51:38;;;;;;;0.20;0.20;;;12.00;99.90;;;;;;4896772;29;20728;-86
2022/08/30 04:54:05;;;;;;;0.20;0.20;;;12.10;99.90;;;;;;4890444;29;20307;-88
2022/08/30 04:56:31;;;;;;;0.10;0.10;;;12.00;99.90;;;;;;4887276;29;20672;-87
2022/08/30 04:58:56;;;;;;;0.10;0.10;;;12.00;99.90;;;;;;4896848;29;20464;-87
2022/08/30 05:01:26;;;;;;;0.20;0.20;;;12.10;99.90;;;;;;4891296;29;20448;-87
2022/08/30 05:03:53;;;;;;;0.20;0.20;;;12.10;99.90;;;;;;4897283;29;20197;-88
2022/08/30 05:06:19;;;;;;;0.10;0.10;;;12.20;99.90;;;;;;4892787;29;20440;-88
2022/08/30 05:08:45;;;;;;;0.10;0.10;;;12.20;99.90;;;;;;4895254;29;20461;-88
2022/08/30 05:11:10;;;;;;;0.20;0.20;;;12.20;99.90;;;;;;4896791;29;20449;-88
2022/08/30 05:13:36;;;;;;;0.20;0.20;;;12.20;99.90;;;;;;4897218;29;20230;-87
2022/08/30 05:16:04;;;;;;;0.20;0.20;;;12.20;99.90;;;;;;4895276;29;20302;-87
2022/08/30 05:18:30;;;;;;;0.20;0.20;;;12.20;99.90;;;;;;4895219;29;20487;-87
2022/08/30 05:21:07;;;;;;;0.10;0.10;;;12.30;99.90;;;;;;4891644;29;20449;-88
2022/08/30 05:23:34;;;;;;;0.20;0.20;;;12.40;99.90;;;;;;4888235;29;20194;-88
2022/08/30 05:26:06;;;;;;;0.10;0.10;;;12.40;99.90;;;;;;4889779;29;20449;-88
2022/08/30 05:28:32;;;;;;;0.10;0.10;;;12.40;99.90;;;;;;4891766;29;20448;-88
2022/08/30 05:30:57;;;;;;;0.10;0.10;;;12.50;99.90;;;;;;4895167;29;20461;-88
2022/08/30 05:33:23;;;;;;;0.10;0.10;;;12.60;99.90;;;;;;4893746;29;20949;-89
2022/08/30 05:35:48;;;;;;;0.10;0.10;;;12.70;99.90;;;;;;4895966;29;20627;-89
2022/08/30 05:38:14;;;;;;;0.10;0.10;;;12.70;99.90;;;;;;4892110;29;20260;-89
2022/08/30 05:40:41;;;;;;;0.20;0.20;;;12.80;99.90;;;;;;4895782;29;20276;-87
2022/08/30 05:43:08;;;;;;;0.10;0.10;;;12.90;99.90;;;;;;4897428;29;20280;-89
2022/08/30 05:45:34;;;;;;;0.10;0.10;;;12.90;99.90;;;;;;4895095;29;20455;-90
2022/08/30 05:48:00;;;;;;;0.10;0.10;;;13.00;99.90;;;;;;4898133;29;20529;-90
2022/08/30 05:50:26;;;;;;;0.20;0.20;;;13.10;99.90;;;;;;4894116;29;20275;-89
2022/08/30 05:52:51;;;;;;;0.10;0.10;;;13.20;99.90;;;;;;4895536;29;20865;-88
2022/08/30 05:55:17;;;;;;;0.10;0.10;;;13.30;99.90;;;;;;4895644;29;20873;-88
2022/08/30 05:57:43;;;;;;;0.10;0.10;;;13.40;99.90;;;;;;4893506;29;20189;-88
2022/08/30 06:00:14;;;;;;;0.10;0.10;;;13.60;99.90;;;;;;4892163;29;20514;-88
2022/08/30 06:02:41;;;;;;;0.10;0.10;;;13.70;99.90;;;;;;4882371;29;20212;-88
2022/08/30 06:05:07;;;;;;;0.10;0.10;;;13.80;99.90;;;;;;4894617;29;20453;-88
2022/08/30 06:07:33;;;;;;;0.10;0.10;;;13.90;99.90;;;;;;4895460;29;20445;-87
2022/08/30 06:09:59;;;;;;;0.10;0.10;;;14.10;99.90;;;;;;4894403;29;21029;-88
2022/08/30 06:12:24;;;;;;;0.10;0.10;;;14.20;99.90;;;;;;4894382;29;20208;-87
2022/08/30 06:14:50;;;;;;;0.10;0.10;;;14.40;99.90;;;;;;4893058;29;20244;-88
2022/08/30 06:17:16;;;;;;;0.10;0.10;;;14.60;99.90;;;;;;4892666;29;20212;-88
2022/08/30 06:19:41;;;;;;;0.10;0.10;;;14.80;99.90;;;;;;4892247;29;20216;-87
2022/08/30 06:22:07;;;;;;;0.10;0.10;;;15.00;99.90;;;;;;4888180;29;20573;-88
2022/08/30 06:24:35;;;;;;;0.10;0.10;;;15.10;99.90;;;;;;4890915;29;20201;-87
2022/08/30 06:27:00;;;;;;;0.10;0.10;;;15.30;99.90;;;;;;4894963;29;20193;-87
2022/08/30 06:29:26;;;;;;;0.10;0.10;;;15.40;99.90;;;;;;4895120;29;20464;-87
2022/08/30 06:31:51;;;;;;;0.10;0.10;;;15.50;99.90;;;;;;4889567;29;20276;-87
2022/08/30 06:34:17;;;;;;;0.10;0.10;;;15.60;99.90;;;;;;4891464;29;20288;-87
2022/08/30 06:36:43;;;;;;;0.10;0.10;;;15.70;99.90;;;;;;4901070;29;20237;-87
2022/08/30 06:39:08;;;;;;;0.10;0.10;;;15.70;99.90;;;;;;4892120;29;20197;-87
2022/08/30 06:41:35;;;;;;;0.10;0.10;;;15.80;99.90;;;;;;4892577;29;20193;-86
2022/08/30 06:44:02;;;;;;;0.10;0.10;;;15.80;99.90;;;;;;4887127;29;20197;-87
2022/08/30 06:46:31;;;;;;;0.10;0.10;;;15.90;99.90;;;;;;4887513;29;20449;-87
2022/08/30 06:48:58;;;;;;;0.10;0.10;;;15.90;99.90;;;;;;4906685;29;20475;-87
2022/08/30 06:51:30;;;;;;;0.10;0.10;;;16.00;99.90;;;;;;4888443;29;20453;-87
2022/08/30 06:53:56;;;;;;;0.10;0.10;;;16.10;99.90;;;;;;4893352;29;20571;-87
2022/08/30 06:56:23;;;;;;;0.10;0.10;;;16.10;99.90;;;;;;4888204;29;20817;-87
2022/08/30 06:58:49;;;;;;;0.10;0.10;;;16.20;99.90;;;;;;4891477;29;20465;-87
2022/08/30 07:01:18;;;;;;;0.10;0.10;;;16.20;99.90;;;;;;4892848;29;20456;-87
2022/08/30 07:03:44;;;;;;;0.10;0.10;;;16.20;99.90;;;;;;4890565;29;20464;-87
2022/08/30 07:06:10;;;;;;;0.10;0.10;;;16.30;99.90;;;;;;4908027;29;20501;-87
2022/08/30 07:08:36;;;;;;;0.10;0.10;;;16.50;99.90;;;;;;4907284;29;20192;-87
2022/08/30 07:11:04;;;;;;;0.10;0.10;;;16.60;99.90;;;;;;4891979;29;20544;-87
2022/08/30 07:13:30;;;;;;;0.10;0.10;;;16.80;99.90;;;;;;4895461;29;20496;-87
2022/08/30 07:15:55;;;;;;;0.10;0.10;;;16.80;99.90;;;;;;4908565;29;20484;-87
2022/08/30 07:21:08;;;;;;;0.10;0.10;;;17.00;99.90;;;;;;4892021;29;20187;-85
2022/08/30 07:23:34;;;;;;;0.10;0.10;;;17.00;99.90;;;;;;4893883;29;21277;-85
2022/08/30 07:26:04;;;;;;;0.10;0.10;;;17.00;99.90;;;;;;4893452;29;20540;-86
2022/08/30 07:28:29;;;;;;;0.10;0.10;;;16.90;99.90;;;;;;4894350;29;20449;-85
2022/08/30 07:30:55;;;;;;;0.10;0.10;;;16.90;99.90;;;;;;4895201;29;20508;-86
2022/08/30 07:33:20;;;;;;;0.10;0.10;;;16.90;99.90;;;;;;4890509;29;20217;-86
2022/08/30 07:35:46;;;;;;;0.10;0.10;;;16.90;99.90;;;;;;4889684;29;20534;-86
2022/08/30 07:38:13;;;;;;;0.10;0.10;;;17.00;99.90;;;;;;4892406;29;20671;-84
2022/08/30 07:40:39;;;;;;;0.10;0.10;;;17.00;99.90;;;;;;4893588;29;20580;-85
2022/08/30 07:43:05;;;;;;;0.10;0.10;;;17.00;99.90;;;;;;4895203;29;20934;-86
2022/08/30 07:45:30;;;;;;;0.10;0.10;;;17.00;99.90;;;;;;4895002;29;20453;-85
2022/08/30 07:47:56;;;;;;;0.10;0.10;;;17.10;99.90;;;;;;4888860;29;20642;-85
2022/08/30 07:50:22;;;;;;;0.10;0.10;;;17.10;99.90;;;;;;4876858;29;20189;-85
2022/08/30 07:52:48;;;;;;;0.10;0.10;;;17.20;99.90;;;;;;4893734;29;20549;-86
2022/08/30 07:55:13;;;;;;;0.10;0.10;;;17.30;99.90;;;;;;4906321;29;20457;-86
2022/08/30 07:57:39;;;;;;;0.10;0.10;;;17.40;99.90;;;;;;4892604;29;20670;-86
2022/08/30 08:00:05;;;;;;;0.10;0.10;;;17.50;99.90;;;;;;4893058;29;20221;-84
2022/08/30 08:02:32;;;;;;;0.10;0.10;;;17.60;99.90;;;;;;4889018;29;20189;-85
2022/08/30 08:04:57;;;;;;;0.10;0.10;;;17.60;99.90;;;;;;4890193;29;20483;-86
2022/08/30 08:07:23;;;;;;;0.10;0.10;;;17.70;99.90;;;;;;4888535;29;20457;-86
2022/08/30 08:09:48;;;;;;;0.10;0.10;;;17.80;99.90;;;;;;4886552;29;20267;-85
2022/08/30 08:12:14;;;;;;;0.10;0.10;;;17.90;99.90;;;;;;4892889;29;20193;-86
2022/08/30 08:14:40;;;;;;;0.10;0.10;;;17.90;99.90;;;;;;4893321;29;20261;-86
2022/08/30 08:17:06;;;;;;;0.10;0.10;;;18.00;99.90;;;;;;4878315;29;20189;-87
2022/08/30 08:19:31;;;;;;;0.10;0.10;;;18.10;99.90;;;;;;4890542;29;20452;-86
2022/08/30 08:21:59;;;;;;;0.10;0.10;;;18.10;99.90;;;;;;4890321;29;20185;-87
2022/08/30 08:24:26;;;;;;;0.10;0.10;;;18.20;99.90;;;;;;4888427;29;20583;-86
2022/08/30 08:26:52;;;;;;;0.10;0.10;;;18.30;99.90;;;;;;4892415;29;20445;-85
2022/08/30 08:29:17;;;;;;;0.10;0.10;;;18.30;99.90;;;;;;4892911;29;20449;-86
2022/08/30 08:31:45;;;;;;;0.10;0.00;;;18.30;99.90;;;;;;4887650;29;20465;-86
2022/08/30 08:34:10;;;;;;;0.10;0.10;;;18.30;99.90;;;;;;4892020;29;20315;-87
2022/08/30 08:36:36;;;;;;;0.10;0.10;;;18.30;99.90;;;;;;4891984;29;20540;-84
2022/08/30 08:39:03;;;;;;;0.10;0.10;;;18.30;99.90;;;;;;4889924;29;20217;-86
2022/08/30 08:42:07;;;;;;;0.10;0.10;;;18.20;99.90;;;;;;4892815;29;20693;-86
2022/08/30 08:45:02;;;;;;;0.10;0.10;;;18.10;99.90;;;;;;4886239;29;20453;-85
2022/08/30 08:47:45;;;;;;;0.10;0.10;;;18.20;99.90;;;;;;4864172;29;20449;-85
2022/08/30 08:50:16;;;;;;;0.10;0.10;;;18.30;99.90;;;;;;4878840;29;20533;-86
2022/08/30 08:55:52;;;;;;;0.10;0.10;;;18.50;99.90;;;;;;4884177;29;20528;-86
2022/08/30 08:58:46;;;;;;;0.10;0.10;;;18.70;99.90;;;;;;4888249;29;20531;-86
2022/08/30 09:01:14;;;;;;;0.10;0.00;;;18.80;99.90;;;;;;4885125;29;20461;-85
2022/08/30 09:03:40;;;;;;;0.10;0.00;;;18.80;99.90;;;;;;4907943;29;20988;-86
2022/08/30 09:06:14;;;;;;;0.10;0.00;;;18.70;99.90;;;;;;4893307;29;20778;-84
2022/08/30 09:08:40;;;;;;;0.10;0.00;;;18.60;99.90;;;;;;4879145;29;20463;-87
2022/08/30 09:11:12;;;;;;;0.10;0.10;;;18.80;99.90;;;;;;4892948;29;20949;-86
2022/08/30 09:13:37;;;;;;;0.10;0.10;;;18.90;99.90;;;;;;4875733;29;20270;-87
2022/08/30 09:16:04;;;;;;;0.00;0.00;;;18.90;99.90;;;;;;4899894;29;21634;-84
2022/08/30 09:18:40;;;;;;;0.10;0.10;;;18.90;99.90;;;;;;4890346;29;20657;-84
2022/08/30 09:21:07;;;;;;;0.10;0.10;;;18.90;99.90;;;;;;4890961;29;20875;-88
2022/08/30 09:23:33;;;;;;;0.10;0.00;;;18.60;99.90;;;;;;4889691;29;20941;-85
2022/08/30 09:26:04;;;;;;;0.10;0.10;;;18.70;99.90;;;;;;4886312;29;20452;-84
2022/08/30 09:28:33;;;;;;;0.10;0.00;;;18.80;99.90;;;;;;4898959;29;20675;-86
2022/08/30 09:31:05;;;;;;;0.10;0.10;;;19.00;99.90;;;;;;4886625;29;21023;-87
2022/08/30 09:33:32;;;;;;;0.10;0.00;;;19.30;99.90;;;;;;4880966;29;20562;-88
2022/08/30 09:36:18;;;;;;;0.10;0.10;;;19.70;99.90;;;;;;4887744;29;20616;-88
2022/08/30 09:38:44;;;;;;;0.10;0.10;;;20.10;99.90;;;;;;4894131;29;20452;-88
2022/08/30 09:41:26;;;;;;;0.10;0.00;;;20.60;99.90;;;;;;4894204;29;20501;-85
2022/08/30 09:44:29;;;;;;;0.10;0.00;;;21.20;99.90;;;;;;4890939;29;20452;-87
2022/08/30 09:46:57;;;;;;;0.10;0.00;;;21.10;99.90;;;;;;4888432;29;20456;-87
2022/08/30 09:49:39;;;;;;;0.10;0.00;;;20.80;99.90;;;;;;4885456;29;20465;-86
2022/08/30 09:52:34;;;;;;;0.10;0.00;;;21.00;99.90;;;;;;4892299;29;20445;-86
2022/08/30 09:55:20;;;;;;;0.10;0.00;;;21.10;99.90;;;;;;4893846;29;20539;-88
2022/08/30 09:57:59;;;;;;;0.10;0.00;;;20.90;99.90;;;;;;4906637;29;20445;-88
2022/08/30 10:00:27;;;;;;;0.10;0.00;;;21.50;99.90;;;;;;4886548;29;20937;-87
2022/08/30 10:02:59;;;;;;;0.10;0.00;;;22.20;99.90;;;;;;4893193;29;20545;-86
2022/08/30 10:05:50;;;;;;;0.10;0.00;;;22.30;99.90;;;;;;4892566;29;20453;-86
2022/08/30 10:08:38;;;;;;;0.10;0.00;;;22.50;99.90;;;;;;4893966;29;20453;-86
2022/08/30 10:11:44;;;;;;;0.10;0.00;;;22.70;99.90;;;;;;4893211;29;21363;-86
2022/08/30 10:14:35;;;;;;;0.10;0.00;;;21.90;99.90;;;;;;4891136;29;20484;-85
2022/08/30 10:17:33;;;;;;;0.10;0.00;;;21.50;99.90;;;;;;4882032;29;20465;-84
2022/08/30 10:20:02;;;;;;;0.10;0.00;;;22.30;99.90;;;;;;4895113;29;20890;-84
2022/08/30 10:22:40;;;;;;;0.10;0.00;;;22.90;99.90;;;;;;4893428;29;20969;-87
2022/08/30 10:25:14;;;;;;;0.10;0.10;;;23.20;99.90;;;;;;4888279;29;20445;-91
2022/08/30 10:28:02;;;;;;;0.10;0.00;;;23.70;99.90;;;;;;4881017;29;20445;-90
2022/08/30 10:30:31;;;;;;;0.10;0.00;;;24.10;99.90;;;;;;4891640;29;20467;-87
2022/08/30 10:32:59;;;;;;;0.10;0.00;;;24.50;99.90;;;;;;4890300;29;20909;-89
2022/08/30 10:35:31;;;;;;;0.10;0.00;;;24.60;99.90;;;;;;4886925;29;20544;-87
2022/08/30 10:38:09;;;;;;;0.10;0.00;;;24.60;99.90;;;;;;4889698;29;21000;-86
2022/08/30 10:43:40;;;;;;;0.10;0.00;;;25.00;99.90;;;;;;4893904;29;20476;-90
2022/08/30 10:46:23;;;;;;;0.10;0.00;;;25.20;99.90;;;;;;4896877;29;20465;-90
2022/08/30 10:48:49;;;;;;;0.10;0.00;;;25.40;99.90;;;;;;4894967;29;20437;-92
2022/08/30 10:51:26;;;;;;;0.10;0.00;;;25.40;99.90;;;;;;4894513;29;20505;-91
2022/08/30 10:54:00;;;;;;;0.10;0.00;;;25.30;99.90;;;;;;4896085;29;20217;-91
2022/08/30 10:56:28;;;;;;;0.10;0.00;;;25.20;99.90;;;;;;4896482;29;20449;-90
2022/08/30 10:58:57;;;;;;;0.10;0.00;;;26.00;99.90;;;;;;4896452;29;20475;-90
2022/08/30 11:01:54;;;;;;;0.10;0.00;;;26.00;99.90;;;;;;4885099;29;20972;-88
2022/08/30 11:04:53;;;;;;;0.10;0.00;;;26.50;99.90;;;;;;4890601;29;20457;-88
2022/08/30 11:07:24;;;;;;;0.10;0.00;;;26.10;99.90;;;;;;4891452;29;20448;-89
2022/08/30 11:10:08;;;;;;;0.10;0.00;;;26.40;99.90;;;;;;4894660;29;20449;-92
2022/08/30 11:12:51;;;;;;;0.10;0.00;;;26.80;99.90;;;;;;4894757;29;21049;-89
2022/08/30 11:15:21;;;;;;;0.10;0.00;;;26.90;99.90;;;;;;4893588;29;20492;-88
2022/08/30 11:18:03;;;;;;;0.10;0.00;;;27.00;99.90;;;;;;4894718;29;20816;-89
2022/08/30 11:20:35;;;;;;;0.10;0.00;;;26.70;99.90;;;;;;4892107;29;20457;-88
2022/08/30 11:23:18;;;;;;;0.10;0.00;;;26.70;99.90;;;;;;4893360;29;20978;-88
2022/08/30 11:25:52;;;;;;;0.10;0.00;;;26.40;99.90;;;;;;4893606;29;20445;-89
2022/08/30 11:28:36;;;;;;;0.10;0.00;;;26.40;99.90;;;;;;4894738;29;20463;-90
2022/08/30 11:31:21;;;;;;;0.10;0.00;;;26.00;97.30;;;;;;4895644;29;20445;-89
2022/08/30 11:33:54;;;;;;;0.10;0.00;;;25.50;98.40;;;;;;4892429;29;20492;-88
2022/08/30 11:36:29;;;;;;;0.10;0.00;;;25.80;96.40;;;;;;4880935;29;20453;-87
2022/08/30 11:38:54;;;;;;;0.10;0.00;;;25.30;97.00;;;;;;4890469;29;20539;-88
2022/08/30 11:41:44;;;;;;;0.10;0.00;;;25.10;98.50;;;;;;4889122;29;21043;-87
2022/08/30 11:44:12;;;;;;;0.10;0.00;;;25.00;96.20;;;;;;4891892;29;20195;-87
2022/08/30 11:46:40;;;;;;;0.10;0.00;;;24.50;98.00;;;;;;4894877;29;20873;-89
2022/08/30 11:49:12;;;;;;;0.10;0.00;;;23.70;97.80;;;;;;4890763;29;20445;-90
2022/08/30 11:51:46;;;;;;;0.10;0.00;;;22.60;98.10;;;;;;4896398;29;20557;-90
2022/08/30 11:54:34;;;;;;;0.10;0.00;;;22.50;99.90;;;;;;4893952;29;20502;-89
2022/08/30 11:57:18;;;;;;;0.10;0.00;;;22.90;99.80;;;;;;4878706;29;20537;-88
2022/08/30 12:00:29;;;;;;;0.10;0.00;;;23.50;99.00;;;;;;4894682;29;20457;-89
2022/08/30 12:02:57;;;;;;;0.10;0.00;;;24.40;99.00;;;;;;4891633;29;20536;-90
2022/08/30 12:05:54;;;;;;;0.10;0.00;;;25.20;97.10;;;;;;4892068;29;20461;-90
2022/08/30 12:08:33;;;;;;;0.10;0.10;;;26.40;96.50;;;;;;4901852;29;20458;-93
2022/08/30 12:11:22;;;;;;;0.00;0.00;;;26.60;94.70;;;;;;4895216;29;20449;-95
2022/08/30 12:13:52;;;;;;;0.00;0.00;;;26.50;95.30;;;;;;4896722;29;20864;-89
2022/08/30 12:16:33;;;;;;;0.10;0.00;;;26.80;95.80;;;;;;4905970;29;20490;-91
2022/08/30 12:19:18;;;;;;;0.10;0.00;;;27.60;94.40;;;;;;4892990;29;20479;-91
2022/08/30 12:21:53;;;;;;;0.10;0.00;;;28.00;91.90;;;;;;4894293;29;20472;-88
2022/08/30 12:24:33;;;;;;;0.00;0.00;;;28.30;93.20;;;;;;4905578;29;20449;-86
2022/08/30 12:27:04;;;;;;;0.00;0.00;;;28.40;92.50;;;;;;4888787;29;20823;-83
2022/08/30 12:29:30;;;;;;;0.00;0.00;;;28.30;91.80;;;;;;4883432;29;20549;-86
2022/08/30 12:32:00;;;;;;;0.00;0.00;;;27.80;93.00;;;;;;4889055;29;20448;-87
2022/08/30 12:34:47;;;;;;;0.10;0.00;;;28.00;93.70;;;;;;4891198;29;20856;-86
2022/08/30 12:37:42;;;;;;;0.10;0.00;;;28.10;93.10;;;;;;4893508;29;20484;-88
2022/08/30 12:40:10;;;;;;;0.10;0.00;;;27.90;92.50;;;;;;4878512;29;20458;-87
2022/08/30 12:42:42;;;;;;;0.10;0.00;;;28.20;94.20;;;;;;4883730;29;20477;-85
2022/08/30 12:45:17;;;;;;;0.10;0.00;;;28.20;92.30;;;;;;4891927;29;20453;-88
2022/08/30 12:48:02;;;;;;;0.10;0.00;;;28.10;92.60;;;;;;4894868;29;20468;-86
2022/08/30 12:50:33;;;;;;;0.10;0.00;;;28.00;94.00;;;;;;4894915;29;20453;-87
2022/08/30 12:53:03;;;;;;;0.10;0.00;;;28.10;91.60;;;;;;4893441;29;20457;-87
2022/08/30 12:55:33;;;;;;;0.10;0.00;;;28.60;91.70;;;;;;4888648;29;20467;-84
2022/08/30 12:58:09;;;;;;;0.10;0.00;;;28.20;88.50;;;;;;4891823;29;20446;-85
2022/08/30 13:00:39;;;;;;;0.10;0.00;;;28.50;91.90;;;;;;4894355;29;20461;-86
2022/08/30 13:03:23;;;;;;;0.10;0.00;;;28.40;90.40;;;;;;4886493;29;20915;-90
2022/08/30 13:05:50;;;;;;;0.10;0.00;;;28.50;87.30;;;;;;4890093;29;20536;-80
2022/08/30 13:08:24;;;;;;;0.10;0.00;;;28.10;88.00;;;;;;4884875;29;20456;-86
2022/08/30 13:11:03;;;;;;;0.10;0.00;;;28.20;86.80;;;;;;4906598;29;20464;-86
2022/08/30 13:13:36;;;;;;;0.10;0.00;;;28.60;87.70;;;;;;4895715;29;20491;-86